createdAt,value
2018-04-10T00:00:14.121Z,11.23
2018-04-10T00:02:42.598Z,11.20
2018-04-10T00:05:11.926Z,11.21
2018-04-10T00:07:40.303Z,11.20
2018-04-10T00:10:10.645Z,11.19
2018-04-10T00:12:39.262Z,11.18
2018-04-10T00:15:07.768Z,11.16
2018-04-10T00:17:36.205Z,11.15
2018-04-10T00:20:04.785Z,11.10
2018-04-10T00:22:33.215Z,11.03
2018-04-10T00:25:03.036Z,10.96
2018-04-10T00:27:31.512Z,10.93
2018-04-10T00:29:59.868Z,10.89
2018-04-10T00:32:28.505Z,10.87
2018-04-10T00:34:57.781Z,10.90
2018-04-10T00:37:26.495Z,10.91
2018-04-10T00:39:54.860Z,10.87
2018-04-10T00:42:23.216Z,10.81
2018-04-10T00:44:51.567Z,10.77
2018-04-10T00:47:20.088Z,10.73
2018-04-10T00:49:49.831Z,10.69
2018-04-10T00:52:18.867Z,10.62
2018-04-10T00:54:48.192Z,10.60
2018-04-10T00:57:17.756Z,10.57
2018-04-10T00:59:46.170Z,10.53
2018-04-10T01:02:14.747Z,10.51
2018-04-10T01:04:43.568Z,10.49
2018-04-10T01:07:11.918Z,10.48
2018-04-10T01:09:41.128Z,10.47
2018-04-10T01:12:09.559Z,10.45
2018-04-10T01:14:39.049Z,10.44
2018-04-10T01:17:07.847Z,10.44
2018-04-10T01:19:36.214Z,10.44
2018-04-10T01:22:05.622Z,10.41
2018-04-10T01:24:34.259Z,10.31
2018-04-10T01:27:03.294Z,10.22
2018-04-10T01:29:31.881Z,10.17
2018-04-10T01:32:01.392Z,10.16
2018-04-10T01:34:29.798Z,10.14
2018-04-10T01:36:58.180Z,10.16
2018-04-10T01:39:26.564Z,10.15
2018-04-10T01:41:55.056Z,10.17
2018-04-10T01:44:23.539Z,10.21
2018-04-10T01:46:51.929Z,10.21
2018-04-10T01:49:20.522Z,10.12
2018-04-10T01:51:49.795Z,10.08
2018-04-10T01:54:18.473Z,10.09
2018-04-10T01:56:47.172Z,10.09
2018-04-10T01:59:16.463Z,10.08
2018-04-10T02:01:45.141Z,10.12
2018-04-10T02:04:13.742Z,10.15
2018-04-10T02:06:42.221Z,10.10
2018-04-10T02:09:10.985Z,10.04
2018-04-10T02:11:39.447Z,10.02
2018-04-10T02:14:08.215Z,9.98
2018-04-10T02:16:36.562Z,9.93
2018-04-10T02:19:05.815Z,9.89
2018-04-10T02:21:34.333Z,9.84
2018-04-10T02:24:03.350Z,9.77
2018-04-10T02:26:31.803Z,9.79
2018-04-10T02:29:00.238Z,9.81
2018-04-10T02:31:29.043Z,9.78
2018-04-10T02:33:57.552Z,9.74
2018-04-10T02:36:27.092Z,9.68
2018-04-10T02:38:55.795Z,9.65
2018-04-10T02:41:24.143Z,9.62
2018-04-10T02:43:52.492Z,9.60
2018-04-10T02:46:20.855Z,9.56
2018-04-10T02:48:49.948Z,9.51
2018-04-10T02:51:19.608Z,9.43
2018-04-10T02:53:48.010Z,9.36
2018-04-10T02:56:17.373Z,9.31
2018-04-10T02:58:45.790Z,9.25
2018-04-10T03:01:14.902Z,9.21
2018-04-10T03:03:44.371Z,9.19
2018-04-10T03:06:12.723Z,9.19
2018-04-10T03:08:41.102Z,9.23
2018-04-10T03:11:10.799Z,9.25
2018-04-10T03:13:39.180Z,9.27
2018-04-10T03:16:07.531Z,9.29
2018-04-10T03:18:35.939Z,9.30
2018-04-10T03:21:04.350Z,9.33
2018-04-10T03:23:33.002Z,9.28
2018-04-10T03:26:01.960Z,9.21
2018-04-10T03:28:30.355Z,9.15
2018-04-10T03:30:59.046Z,9.11
2018-04-10T03:33:27.955Z,9.11
2018-04-10T03:35:56.836Z,9.12
2018-04-10T03:38:25.204Z,9.11
2018-04-10T03:40:54.023Z,9.13
2018-04-10T03:43:22.506Z,9.12
2018-04-10T03:45:51.069Z,9.10
2018-04-10T03:48:19.463Z,9.10
2018-04-10T03:50:48.444Z,9.11
2018-04-10T03:53:17.309Z,9.10
2018-04-10T03:55:45.734Z,9.10
2018-04-10T03:58:14.214Z,9.10
2018-04-10T04:00:42.885Z,9.07
2018-04-10T04:03:11.542Z,9.04
2018-04-10T04:05:40.656Z,9.01
2018-04-10T04:08:09.254Z,8.98
2018-04-10T04:10:38.089Z,8.97
2018-04-10T04:13:06.842Z,8.93
2018-04-10T04:15:35.184Z,8.92
2018-04-10T04:18:03.978Z,8.92
2018-04-10T04:20:44.913Z,8.92
2018-04-10T04:23:15.699Z,8.92
2018-04-10T04:25:44.330Z,8.91
2018-04-10T04:28:12.811Z,8.92
2018-04-10T04:30:41.680Z,8.95
2018-04-10T04:33:10.274Z,8.96
2018-04-10T04:35:39.052Z,8.98
2018-04-10T04:38:07.439Z,9.03
2018-04-10T04:40:36.265Z,9.08
2018-04-10T04:43:04.615Z,9.14
2018-04-10T04:45:32.982Z,9.21
2018-04-10T04:48:02.267Z,9.23
2018-04-10T04:50:30.824Z,9.26
2018-04-10T04:52:59.790Z,9.30
2018-04-10T04:55:28.161Z,9.36
2018-04-10T04:57:56.847Z,9.45
2018-04-10T05:00:25.685Z,9.55
2018-04-10T05:02:54.103Z,9.65
2018-04-10T05:05:22.516Z,9.78
2018-04-10T05:07:50.884Z,9.93
2018-04-10T05:10:19.619Z,10.19
2018-04-10T05:12:49.138Z,10.47
2018-04-10T05:15:18.072Z,10.66
2018-04-10T05:17:46.439Z,10.84
2018-04-10T05:20:15.239Z,11.03
2018-04-10T05:22:43.657Z,11.19
2018-04-10T05:25:13.283Z,11.25
2018-04-10T05:27:41.693Z,11.30
2018-04-10T05:30:10.294Z,11.37
2018-04-10T05:32:38.660Z,11.44
2018-04-10T05:35:07.057Z,11.49
2018-04-10T05:37:36.215Z,11.53
2018-04-10T05:40:04.566Z,11.54
2018-04-10T05:42:33.154Z,11.54
2018-04-10T05:45:01.906Z,11.54
2018-04-10T05:47:30.337Z,11.59
2018-04-10T05:49:59.189Z,11.66
2018-04-10T05:52:27.575Z,11.75
2018-04-10T05:54:56.771Z,11.85
2018-04-10T05:57:25.297Z,11.95
2018-04-10T05:59:54.762Z,11.95
2018-04-10T06:02:24.085Z,11.91
2018-04-10T06:04:54.766Z,11.91
2018-04-10T06:07:23.327Z,11.92
2018-04-10T06:09:51.856Z,11.95
2018-04-10T06:12:20.609Z,11.98
2018-04-10T06:14:50.017Z,11.96
2018-04-10T06:17:18.531Z,11.90
2018-04-10T06:19:47.055Z,11.75
2018-04-10T06:22:17.195Z,11.68
2018-04-10T06:24:45.642Z,11.64
2018-04-10T06:27:14.768Z,11.65
2018-04-10T06:29:43.127Z,11.66
2018-04-10T06:32:11.787Z,11.62
2018-04-10T06:34:41.089Z,11.63
2018-04-10T06:37:09.739Z,11.69
2018-04-10T06:39:38.790Z,11.62
2018-04-10T06:42:07.424Z,11.53
2018-04-10T06:44:35.836Z,11.48
2018-04-10T06:47:04.321Z,11.52
2018-04-10T06:49:33.310Z,11.51
2018-04-10T06:52:04.003Z,11.45
2018-04-10T06:54:32.390Z,11.41
2018-04-10T06:57:01.430Z,11.32
2018-04-10T06:59:29.808Z,11.28
2018-04-10T07:01:58.251Z,11.24
2018-04-10T07:04:27.093Z,11.18
2018-04-10T07:06:55.451Z,11.14
2018-04-10T07:09:23.904Z,11.11
2018-04-10T07:11:52.353Z,11.02
2018-04-10T07:14:20.715Z,10.94
2018-04-10T07:16:49.366Z,10.95
2018-04-10T07:19:18.784Z,10.96
2018-04-10T07:21:47.421Z,10.92
2018-04-10T07:24:15.867Z,10.93
2018-04-10T07:26:44.366Z,10.96
2018-04-10T07:29:12.801Z,10.92
2018-04-10T07:31:41.329Z,11.00
2018-04-10T07:34:10.618Z,11.10
2018-04-10T07:36:39.015Z,11.04
2018-04-10T07:39:07.697Z,11.01
2018-04-10T07:41:36.279Z,11.18
2018-04-10T07:44:04.707Z,11.32
2018-04-10T07:46:34.850Z,11.30
2018-04-10T07:49:04.023Z,11.26
2018-04-10T07:51:32.599Z,11.25
2018-04-10T07:54:02.118Z,11.25
2018-04-10T07:56:31.104Z,11.28
2018-04-10T07:58:59.759Z,11.33
2018-04-10T08:01:28.136Z,11.32
2018-04-10T08:03:56.715Z,11.25
2018-04-10T08:06:25.154Z,11.29
2018-04-10T08:08:53.658Z,11.43
2018-04-10T08:11:22.128Z,11.42
2018-04-10T08:13:50.504Z,11.35
2018-04-10T08:16:19.260Z,11.30
2018-04-10T08:18:47.702Z,11.32
2018-04-10T08:21:16.400Z,11.36
2018-04-10T08:23:44.768Z,11.40
2018-04-10T08:26:13.785Z,11.41
2018-04-10T08:28:42.220Z,11.33
2018-04-10T08:31:10.647Z,11.22
2018-04-10T08:33:41.189Z,11.05
2018-04-10T08:36:10.268Z,10.99
2018-04-10T08:38:38.723Z,11.09
2018-04-10T08:41:07.535Z,11.25
2018-04-10T08:43:36.980Z,11.35
2018-04-10T08:46:05.350Z,11.33
2018-04-10T08:48:33.834Z,11.32
2018-04-10T08:51:03.072Z,11.34
2018-04-10T08:53:31.552Z,11.32
2018-04-10T08:56:03.568Z,11.40
2018-04-10T08:58:32.279Z,11.32
2018-04-10T09:01:01.167Z,11.38
2018-04-10T09:03:30.330Z,11.52
2018-04-10T09:05:58.693Z,11.60
2018-04-10T09:08:27.448Z,11.59
2018-04-10T09:10:55.887Z,11.77
2018-04-10T09:13:24.319Z,11.83
2018-04-10T09:15:52.712Z,11.78
2018-04-10T09:18:22.145Z,11.56
2018-04-10T09:20:51.703Z,11.64
2018-04-10T09:23:20.067Z,11.71
2018-04-10T09:25:49.127Z,11.66
2018-04-10T09:28:17.891Z,11.39
2018-04-10T09:30:46.384Z,11.19
2018-04-10T09:33:15.091Z,11.04
2018-04-10T09:35:43.536Z,11.02
2018-04-10T09:38:13.144Z,10.99
2018-04-10T09:40:41.542Z,10.95
2018-04-10T09:43:09.911Z,10.91
2018-04-10T09:45:39.295Z,10.94
2018-04-10T09:48:08.855Z,11.03
2018-04-10T09:50:38.330Z,11.22
2018-04-10T09:53:06.976Z,11.30
2018-04-10T09:55:35.349Z,11.49
2018-04-10T09:58:03.730Z,11.71
2018-04-10T10:00:37.570Z,11.77
2018-04-10T10:03:07.784Z,11.71
2018-04-10T10:05:36.234Z,11.92
2018-04-10T10:08:05.657Z,12.00
2018-04-10T10:10:34.059Z,12.04
2018-04-10T10:13:03.813Z,12.08
2018-04-10T10:15:32.728Z,11.96
2018-04-10T10:18:02.427Z,11.84
2018-04-10T10:20:30.843Z,11.82
2018-04-10T10:22:59.803Z,11.98
2018-04-10T10:25:29.287Z,12.11
2018-04-10T10:27:57.757Z,12.25
2018-04-10T10:30:26.653Z,12.44
2018-04-10T10:32:55.119Z,12.54
2018-04-10T10:35:23.540Z,12.51
2018-04-10T10:37:52.238Z,12.48
2018-04-10T10:40:21.026Z,12.61
2018-04-10T10:42:49.891Z,12.55
2018-04-10T10:45:18.251Z,12.67
2018-04-10T10:47:46.872Z,12.70
2018-04-10T10:50:16.857Z,12.69
2018-04-10T10:52:45.383Z,12.42
2018-04-10T10:55:14.008Z,12.33
2018-04-10T10:57:42.731Z,12.19
2018-04-10T11:00:11.087Z,12.19
2018-04-10T11:02:40.919Z,12.29
2018-04-10T11:05:10.200Z,12.36
2018-04-10T11:07:38.791Z,12.53
2018-04-10T11:10:08.255Z,12.75
2018-04-10T11:12:36.674Z,12.85
2018-04-10T11:15:05.039Z,12.85
2018-04-10T11:17:34.485Z,13.00
2018-04-10T11:20:04.804Z,13.16
2018-04-10T11:22:34.889Z,13.21
2018-04-10T11:25:03.931Z,13.27
2018-04-10T11:27:33.033Z,13.46
2018-04-10T11:30:02.754Z,13.49
2018-04-10T11:32:31.451Z,13.56
2018-04-10T11:34:59.833Z,13.65
2018-04-10T11:37:28.195Z,13.56
2018-04-10T11:39:57.502Z,13.44
2018-04-10T11:42:26.676Z,13.49
2018-04-10T11:44:55.476Z,13.56
2018-04-10T11:47:23.857Z,13.33
2018-04-10T11:49:52.869Z,13.11
2018-04-10T11:52:22.428Z,13.02
2018-04-10T11:54:51.412Z,12.95
2018-04-10T11:57:21.026Z,13.12
2018-04-10T11:59:50.249Z,13.22
2018-04-10T12:02:19.283Z,13.24
2018-04-10T12:04:48.471Z,13.40
2018-04-10T12:07:16.844Z,13.52
2018-04-10T12:09:46.265Z,13.79
2018-04-10T12:12:14.663Z,13.91
2018-04-10T12:14:44.115Z,13.72
2018-04-10T12:17:12.479Z,13.36
2018-04-10T12:19:40.911Z,13.12
2018-04-10T12:22:09.276Z,12.87
2018-04-10T12:24:38.392Z,12.79
2018-04-10T12:27:07.055Z,12.66
2018-04-10T12:29:35.473Z,12.48
2018-04-10T12:32:03.840Z,12.59
2018-04-10T12:34:33.354Z,12.62
2018-04-10T12:37:02.452Z,12.31
2018-04-10T12:39:31.935Z,12.20
2018-04-10T12:42:01.549Z,12.07
2018-04-10T12:44:31.311Z,12.02
2018-04-10T12:47:00.250Z,11.90
2018-04-10T12:49:30.049Z,11.69
2018-04-10T12:52:01.186Z,11.44
2018-04-10T12:54:30.075Z,11.32
2018-04-10T12:56:59.327Z,11.23
2018-04-10T12:59:28.915Z,11.12
2018-04-10T13:01:57.312Z,10.98
2018-04-10T13:04:26.257Z,10.95
2018-04-10T13:06:55.218Z,10.88
2018-04-10T13:09:23.899Z,10.94
2018-04-10T13:11:52.336Z,10.84
2018-04-10T13:14:21.061Z,10.75
2018-04-10T13:16:49.419Z,10.57
2018-04-10T13:19:18.914Z,10.47
2018-04-10T13:21:47.596Z,10.66
2018-04-10T13:24:16.281Z,10.83
2018-04-10T13:26:45.832Z,10.87
2018-04-10T13:29:14.511Z,10.72
2018-04-10T13:31:43.417Z,10.80
2018-04-10T13:34:12.174Z,10.86
2018-04-10T13:36:40.827Z,10.83
2018-04-10T13:39:09.431Z,10.92
2018-04-10T13:41:38.406Z,11.10
2018-04-10T13:44:07.278Z,10.91
2018-04-10T13:46:37.290Z,10.77
2018-04-10T13:49:06.825Z,10.72
2018-04-10T13:51:36.813Z,10.76
2018-04-10T13:54:06.899Z,10.73
2018-04-10T13:56:37.149Z,10.68
2018-04-10T13:59:07.155Z,10.59
2018-04-10T14:01:36.045Z,10.65
2018-04-10T14:04:05.350Z,10.63
2018-04-10T14:09:07.450Z,10.63
2018-04-10T14:11:37.207Z,10.68
2018-04-10T14:14:05.877Z,10.75
2018-04-10T14:16:34.377Z,10.77
2018-04-10T14:19:03.111Z,10.77
2018-04-10T14:21:31.916Z,10.75
2018-04-10T14:24:00.696Z,10.58
2018-04-10T14:26:29.159Z,10.50
2018-04-10T14:28:57.509Z,10.51
2018-04-10T14:31:25.872Z,10.61
2018-04-10T14:33:54.695Z,10.47
2018-04-10T14:36:24.066Z,10.34
2018-04-10T14:38:52.441Z,10.31
2018-04-10T14:41:21.539Z,10.29
2018-04-10T14:43:50.768Z,10.44
2018-04-10T14:46:19.127Z,10.72
2018-04-10T14:48:47.628Z,10.74
2018-04-10T14:51:16.164Z,10.70
2018-04-10T14:53:44.767Z,10.76
2018-04-10T14:56:13.159Z,10.64
2018-04-10T14:58:41.516Z,10.68
2018-04-10T15:01:09.868Z,10.46
2018-04-10T15:03:38.283Z,10.35
2018-04-10T15:06:06.680Z,10.42
2018-04-10T15:08:35.415Z,10.58
2018-04-10T15:11:03.768Z,10.68
2018-04-10T15:13:32.407Z,10.81
2018-04-10T15:16:01.171Z,10.93
2018-04-10T15:18:29.886Z,10.78
2018-04-10T15:20:58.276Z,10.78
2018-04-10T15:23:26.710Z,11.28
2018-04-10T15:25:56.207Z,11.49
2018-04-10T15:28:24.673Z,11.37
2018-04-10T15:30:54.019Z,11.33
2018-04-10T15:33:23.077Z,11.28
2018-04-10T15:35:53.129Z,11.26
2018-04-10T15:38:22.556Z,11.12
2018-04-10T15:40:51.018Z,11.10
2018-04-10T15:43:19.629Z,10.92
2018-04-10T15:45:48.082Z,10.76
2018-04-10T15:48:16.566Z,10.67
2018-04-10T15:50:45.335Z,10.74
2018-04-10T15:53:13.947Z,10.66
2018-04-10T15:55:42.528Z,10.50
2018-04-10T15:58:11.330Z,10.36
2018-04-10T16:00:39.707Z,10.33
2018-04-10T16:03:08.283Z,10.31
2018-04-10T16:05:36.710Z,10.22
2018-04-10T16:08:05.557Z,10.10
2018-04-10T16:10:34.038Z,9.98
2018-04-10T16:13:03.332Z,9.90
2018-04-10T16:15:31.873Z,9.89
2018-04-10T16:18:00.579Z,9.83
2018-04-10T16:20:28.938Z,9.91
2018-04-10T16:22:57.291Z,9.91
2018-04-10T16:25:25.640Z,9.81
2018-04-10T16:27:54.617Z,9.79
2018-04-10T16:30:23.014Z,9.71
2018-04-10T16:32:51.819Z,9.64
2018-04-10T16:35:20.171Z,9.62
2018-04-10T16:37:48.838Z,9.60
2018-04-10T16:40:17.602Z,9.58
2018-04-10T16:42:45.962Z,9.52
2018-04-10T16:45:14.673Z,9.37
2018-04-10T16:47:43.367Z,9.28
2018-04-10T16:50:11.799Z,9.26
2018-04-10T16:52:40.151Z,9.21
2018-04-10T16:55:08.890Z,9.21
2018-04-10T16:57:37.247Z,9.16
2018-04-10T17:00:05.625Z,9.03
2018-04-10T17:02:33.990Z,9.01
2018-04-10T17:05:02.356Z,8.99
2018-04-10T17:07:31.399Z,8.95
2018-04-10T17:09:59.793Z,8.94
2018-04-10T17:12:28.502Z,8.89
2018-04-10T17:14:56.895Z,8.78
2018-04-10T17:17:26.341Z,8.67
2018-04-10T17:19:54.970Z,8.56
2018-04-10T17:22:23.735Z,8.51
2018-04-10T17:24:52.147Z,8.47
2018-04-10T17:27:20.690Z,8.41
2018-04-10T17:29:49.180Z,8.37
2018-04-10T17:32:17.826Z,8.36
2018-04-10T17:34:46.556Z,8.35
2018-04-10T17:37:14.921Z,8.31
2018-04-10T17:39:43.580Z,8.26
2018-04-10T17:42:12.235Z,8.21
2018-04-10T17:44:41.515Z,8.18
2018-04-10T17:47:09.872Z,8.14
2018-04-10T17:49:38.248Z,8.08
2018-04-10T17:52:06.620Z,8.05
2018-04-10T17:54:35.581Z,8.01
2018-04-10T17:57:03.943Z,8.01
2018-04-10T17:59:32.648Z,7.98
2018-04-10T18:02:01.008Z,7.98
2018-04-10T18:04:29.518Z,7.97
2018-04-10T18:06:58.592Z,7.93
2018-04-10T18:09:26.968Z,7.89
2018-04-10T18:11:55.960Z,7.86
2018-04-10T18:14:24.344Z,7.85
2018-04-10T18:16:53.599Z,7.85
2018-04-10T18:19:22.999Z,7.86
2018-04-10T18:21:51.667Z,7.86
2018-04-10T18:24:20.142Z,7.84
2018-04-10T18:26:48.831Z,7.81
2018-04-10T18:29:17.638Z,7.78
2018-04-10T18:31:46.683Z,7.80
2018-04-10T18:34:15.410Z,7.82
2018-04-10T18:36:43.784Z,7.83
2018-04-10T18:39:12.229Z,7.79
2018-04-10T18:41:41.515Z,7.84
2018-04-10T18:44:10.313Z,7.86
2018-04-10T18:46:38.984Z,7.83
2018-04-10T18:49:08.657Z,7.82
2018-04-10T18:51:37.895Z,7.86
2018-04-10T18:54:07.741Z,7.84
2018-04-10T18:56:36.486Z,7.80
2018-04-10T18:59:05.168Z,7.73
2018-04-10T19:01:33.623Z,7.75
2018-04-10T19:04:02.006Z,7.75
2018-04-10T19:06:31.226Z,7.77
2018-04-10T19:08:59.933Z,7.80
2018-04-10T19:14:05.457Z,7.81
2018-04-10T19:16:35.101Z,7.76
2018-04-10T19:19:03.756Z,7.80
2018-04-10T19:21:32.208Z,7.76
2018-04-10T19:24:00.585Z,7.79
2018-04-10T19:26:30.353Z,7.75
2018-04-10T19:28:59.548Z,7.75
2018-04-10T19:31:27.912Z,7.74
2018-04-10T19:33:57.285Z,7.70
2018-04-10T19:36:25.644Z,7.63
2018-04-10T19:38:54.328Z,7.60
2018-04-10T19:41:22.727Z,7.62
2018-04-10T19:43:51.092Z,7.63
2018-04-10T19:46:21.474Z,7.62
2018-04-10T19:48:49.840Z,7.63
2018-04-10T19:51:18.449Z,7.63
2018-04-10T19:53:46.812Z,7.61
2018-04-10T19:56:15.179Z,7.61
2018-04-10T19:58:44.749Z,7.61
2018-04-10T20:01:13.256Z,7.63
2018-04-10T20:03:42.189Z,7.63
2018-04-10T20:06:10.947Z,7.64
2018-04-10T20:08:39.676Z,7.67
2018-04-10T20:11:10.897Z,7.71
2018-04-10T20:13:39.287Z,7.67
2018-04-10T20:16:07.654Z,7.61
2018-04-10T20:18:37.147Z,7.62
2018-04-10T20:21:05.543Z,7.59
2018-04-10T20:23:34.178Z,7.54
2018-04-10T20:26:02.538Z,7.56
2018-04-10T20:28:31.437Z,7.66
2018-04-10T20:30:59.829Z,7.60
2018-04-10T20:33:28.357Z,7.56
2018-04-10T20:35:57.111Z,7.52
2018-04-10T20:38:25.833Z,7.49
2018-04-10T20:40:55.132Z,7.46
2018-04-10T20:43:23.511Z,7.42
2018-04-10T20:45:52.090Z,7.37
2018-04-10T20:48:20.482Z,7.36
2018-04-10T20:50:48.832Z,7.36
2018-04-10T20:53:17.233Z,7.37
2018-04-10T20:55:45.957Z,7.35
2018-04-10T20:58:14.649Z,7.33
2018-04-10T21:00:43.164Z,7.30
2018-04-10T21:03:12.742Z,7.25
2018-04-10T21:05:41.090Z,7.22
2018-04-10T21:08:10.017Z,7.19
2018-04-10T21:10:38.590Z,7.18
2018-04-10T21:13:07.534Z,7.20
2018-04-10T21:15:36.812Z,7.18
2018-04-10T21:18:05.600Z,7.15
2018-04-10T21:20:34.008Z,7.15
2018-04-10T21:23:04.087Z,7.15
2018-04-10T21:25:32.547Z,7.11
2018-04-10T21:28:01.445Z,7.05
2018-04-10T21:30:30.216Z,7.02
2018-04-10T21:32:59.851Z,7.00
2018-04-10T21:35:29.583Z,6.97
2018-04-10T21:37:58.389Z,6.91
2018-04-10T21:40:26.896Z,6.88
2018-04-10T21:43:01.675Z,6.87
2018-04-10T21:45:31.299Z,6.85
2018-04-10T21:47:59.813Z,6.84
2018-04-10T21:50:28.203Z,6.81
2018-04-10T21:52:56.563Z,6.80
2018-04-10T21:55:25.109Z,6.78
2018-04-10T21:57:54.551Z,6.75
2018-04-10T22:00:22.904Z,6.75
2018-04-10T22:02:51.964Z,6.75
2018-04-10T22:05:20.971Z,6.75
2018-04-10T22:07:49.368Z,6.72
2018-04-10T22:10:18.265Z,6.71
2018-04-10T22:12:49.446Z,6.69
2018-04-10T22:15:18.377Z,6.67
2018-04-10T22:17:47.330Z,6.63
2018-04-10T22:20:16.053Z,6.60
2018-04-10T22:22:45.134Z,6.56
2018-04-10T22:25:13.597Z,6.58
2018-04-10T22:27:43.827Z,6.59
2018-04-10T22:30:13.162Z,6.57
2018-04-10T22:32:41.525Z,6.56
2018-04-10T22:35:10.579Z,6.54
2018-04-10T22:37:39.598Z,6.52
2018-04-10T22:40:08.050Z,6.53
2018-04-10T22:42:37.122Z,6.48
2018-04-10T22:45:06.413Z,6.47
2018-04-10T22:47:35.306Z,6.43
2018-04-10T22:50:03.826Z,6.40
2018-04-10T22:52:32.624Z,6.34
2018-04-10T22:55:01.203Z,6.33
2018-04-10T22:57:29.554Z,6.34
2018-04-10T22:59:58.154Z,6.34
2018-04-10T23:02:26.605Z,6.29
2018-04-10T23:04:55.199Z,6.28
2018-04-10T23:07:23.584Z,6.27
2018-04-10T23:09:52.012Z,6.26
2018-04-10T23:12:20.530Z,6.25
2018-04-10T23:14:49.139Z,6.26
2018-04-10T23:17:17.492Z,6.23
2018-04-10T23:19:45.844Z,6.23
2018-04-10T23:22:14.191Z,6.24
2018-04-10T23:24:42.567Z,6.21
2018-04-10T23:27:11.282Z,6.22
2018-04-10T23:29:40.401Z,6.22
2018-04-10T23:32:08.739Z,6.24
2018-04-10T23:34:37.408Z,6.26
2018-04-10T23:37:05.834Z,6.30
2018-04-10T23:39:34.525Z,6.34
2018-04-10T23:42:03.229Z,6.37
2018-04-10T23:44:31.979Z,6.40
2018-04-10T23:47:00.747Z,6.41
2018-04-10T23:49:30.303Z,6.43
2018-04-10T23:51:59.282Z,6.47
2018-04-10T23:54:27.945Z,6.49
2018-04-10T23:56:56.811Z,6.53
2018-04-10T23:59:25.917Z,6.54
